createdAt,value
2016-11-16T00:00:39.757Z,0
2016-11-16T00:01:40.030Z,0
2016-11-16T00:02:40.441Z,0
2016-11-16T00:03:41.007Z,0
2016-11-16T00:04:40.390Z,0
2016-11-16T00:05:39.902Z,0
2016-11-16T00:06:39.943Z,0
2016-11-16T00:07:40.563Z,0
2016-11-16T00:08:40.498Z,0
2016-11-16T00:09:40.928Z,0
2016-11-16T00:10:40.685Z,0
2016-11-16T00:11:39.611Z,0
2016-11-16T00:12:40.257Z,0
2016-11-16T00:13:40.497Z,0
2016-11-16T00:14:41.329Z,0
2016-11-16T00:15:39.703Z,0
2016-11-16T00:16:39.949Z,0
2016-11-16T00:17:39.372Z,0
2016-11-16T00:18:40.314Z,0
2016-11-16T00:19:40.059Z,0
2016-11-16T00:20:40.290Z,0
2016-11-16T00:21:40.553Z,0
2016-11-16T00:22:39.825Z,0
2016-11-16T00:23:39.596Z,0
2016-11-16T00:24:39.455Z,0
2016-11-16T00:25:41.269Z,0
2016-11-16T00:26:40.089Z,0
2016-11-16T00:27:40.109Z,0
2016-11-16T00:28:41.110Z,0
2016-11-16T00:29:40.552Z,0
2016-11-16T00:30:41.865Z,0
2016-11-16T00:31:41.240Z,0
2016-11-16T00:32:39.822Z,0
2016-11-16T00:33:40.371Z,0
2016-11-16T00:34:39.616Z,0
2016-11-16T00:35:39.767Z,0
2016-11-16T00:36:39.550Z,0
2016-11-16T00:37:40.196Z,0
2016-11-16T00:38:40.561Z,0
2016-11-16T00:39:40.141Z,0
2016-11-16T00:40:41.756Z,0
2016-11-16T00:41:40.365Z,0
2016-11-16T00:42:41.617Z,0
2016-11-16T00:43:40.124Z,0
2016-11-16T00:44:40.665Z,0
2016-11-16T00:45:40.140Z,0
2016-11-16T00:46:40.509Z,0
2016-11-16T00:47:40.332Z,0
2016-11-16T00:48:41.136Z,0
2016-11-16T00:49:40.814Z,0
2016-11-16T00:50:40.023Z,0
2016-11-16T00:51:40.622Z,0
2016-11-16T00:52:41.848Z,0
2016-11-16T00:53:41.631Z,0
2016-11-16T00:54:40.004Z,0
2016-11-16T00:55:40.263Z,0
2016-11-16T00:56:41.219Z,0
2016-11-16T00:57:40.212Z,0
2016-11-16T00:58:40.235Z,0
2016-11-16T00:59:41.981Z,0
2016-11-16T01:00:41.086Z,0
2016-11-16T01:01:41.297Z,0
2016-11-16T01:02:41.374Z,0
2016-11-16T01:03:40.283Z,0
2016-11-16T01:04:42.417Z,0
2016-11-16T01:05:40.525Z,0
2016-11-16T01:06:41.998Z,0
2016-11-16T01:07:41.339Z,0
2016-11-16T01:08:41.302Z,0
2016-11-16T01:09:40.170Z,0
2016-11-16T01:10:41.594Z,0
2016-11-16T01:11:42.004Z,0
2016-11-16T01:12:40.746Z,0
2016-11-16T01:13:41.173Z,0
2016-11-16T01:14:40.571Z,0
2016-11-16T01:15:41.094Z,0
2016-11-16T01:16:41.282Z,0
2016-11-16T01:17:40.988Z,0
2016-11-16T01:18:40.798Z,0
2016-11-16T01:19:41.246Z,0
2016-11-16T01:20:41.599Z,0
2016-11-16T01:21:41.361Z,0
2016-11-16T01:22:40.431Z,0
2016-11-16T01:23:41.352Z,0
2016-11-16T01:24:41.768Z,0
2016-11-16T01:25:42.099Z,0
2016-11-16T01:26:40.664Z,0
2016-11-16T01:27:41.112Z,0
2016-11-16T01:28:40.636Z,0
2016-11-16T01:29:41.880Z,0
2016-11-16T01:30:40.894Z,0
2016-11-16T01:31:40.916Z,0
2016-11-16T01:32:40.599Z,0
2016-11-16T01:33:39.973Z,0
2016-11-16T01:34:41.605Z,0
2016-11-16T01:35:40.647Z,0
2016-11-16T01:36:41.227Z,0
2016-11-16T01:37:42.768Z,0
2016-11-16T01:38:41.358Z,0
2016-11-16T01:39:40.973Z,0
2016-11-16T01:40:41.558Z,0
2016-11-16T01:41:42.021Z,0
2016-11-16T01:42:42.452Z,0
2016-11-16T01:43:42.467Z,0
2016-11-16T01:44:42.243Z,0
2016-11-16T01:45:41.815Z,0
2016-11-16T01:46:40.780Z,0
2016-11-16T01:47:40.674Z,0
2016-11-16T01:48:41.461Z,0
2016-11-16T01:49:42.283Z,0
2016-11-16T01:50:41.887Z,0
2016-11-16T01:51:41.278Z,0
2016-11-16T01:52:40.836Z,0
2016-11-16T01:53:41.472Z,0
2016-11-16T01:54:42.042Z,0
2016-11-16T01:55:41.753Z,0
2016-11-16T01:56:41.630Z,0
2016-11-16T01:57:41.396Z,0
2016-11-16T01:58:40.641Z,0
2016-11-16T01:59:42.162Z,0
2016-11-16T02:00:42.024Z,0
2016-11-16T02:01:42.148Z,0
2016-11-16T02:02:41.351Z,0
2016-11-16T02:03:42.050Z,0
2016-11-16T02:04:41.107Z,0
2016-11-16T02:05:42.286Z,0
2016-11-16T02:06:42.124Z,0
2016-11-16T02:07:42.556Z,0
2016-11-16T02:08:41.538Z,0
2016-11-16T02:09:41.079Z,0
2016-11-16T02:10:41.769Z,0
2016-11-16T02:11:41.461Z,0
2016-11-16T02:12:41.729Z,0
2016-11-16T02:13:41.639Z,0
2016-11-16T02:14:42.177Z,0
2016-11-16T02:15:41.642Z,0
2016-11-16T02:16:42.512Z,0
2016-11-16T02:17:42.000Z,0
2016-11-16T02:18:42.277Z,0
2016-11-16T02:19:42.039Z,0
2016-11-16T02:20:42.019Z,0
2016-11-16T02:21:42.563Z,0
2016-11-16T02:22:41.543Z,0
2016-11-16T02:23:41.409Z,0
2016-11-16T02:24:41.469Z,0
2016-11-16T02:25:44.603Z,0
2016-11-16T02:26:42.260Z,0
2016-11-16T02:27:42.223Z,0
2016-11-16T02:28:42.072Z,0
2016-11-16T02:29:41.969Z,0
2016-11-16T02:30:41.830Z,0
2016-11-16T02:31:41.828Z,0
2016-11-16T02:32:41.512Z,0
2016-11-16T02:33:41.924Z,0
2016-11-16T02:34:42.872Z,0
2016-11-16T02:35:42.102Z,0
2016-11-16T02:36:42.772Z,0
2016-11-16T02:37:42.977Z,0
2016-11-16T02:38:43.272Z,0
2016-11-16T02:39:42.877Z,0
2016-11-16T02:40:42.260Z,0
2016-11-16T02:41:42.080Z,0
2016-11-16T02:42:42.653Z,0
2016-11-16T02:43:42.702Z,0
2016-11-16T02:44:42.368Z,0
2016-11-16T02:45:41.662Z,0
2016-11-16T02:46:43.384Z,0
2016-11-16T02:47:41.653Z,0
2016-11-16T02:48:42.519Z,0
2016-11-16T02:49:42.344Z,0
2016-11-16T02:50:43.332Z,0
2016-11-16T02:51:41.841Z,0
2016-11-16T02:52:41.822Z,0
2016-11-16T02:53:42.313Z,0
2016-11-16T02:54:42.669Z,0
2016-11-16T02:55:42.007Z,0
2016-11-16T02:56:42.830Z,0
2016-11-16T02:57:42.721Z,0
2016-11-16T02:58:42.307Z,0
2016-11-16T02:59:42.726Z,0
2016-11-16T03:00:47.822Z,0
2016-11-16T03:01:42.905Z,0
2016-11-16T03:02:42.724Z,0
2016-11-16T03:03:42.405Z,0
2016-11-16T03:04:41.857Z,0
2016-11-16T03:05:42.251Z,0
2016-11-16T03:06:42.396Z,0
2016-11-16T03:07:42.656Z,0
2016-11-16T03:08:42.046Z,0
2016-11-16T03:09:42.399Z,0
2016-11-16T03:10:42.176Z,0
2016-11-16T03:11:42.611Z,0
2016-11-16T03:12:42.253Z,0
2016-11-16T03:13:42.761Z,0
2016-11-16T03:14:42.577Z,0
2016-11-16T03:15:42.889Z,0
2016-11-16T03:16:42.770Z,0
2016-11-16T03:17:43.023Z,0
2016-11-16T03:18:43.003Z,0
2016-11-16T03:19:42.920Z,0
2016-11-16T03:20:44.321Z,0
2016-11-16T03:21:42.989Z,0
2016-11-16T03:22:42.355Z,0
2016-11-16T03:23:41.993Z,0
2016-11-16T03:24:43.032Z,0
2016-11-16T03:25:42.841Z,0
2016-11-16T03:26:43.028Z,0
2016-11-16T03:27:43.008Z,0
2016-11-16T03:28:43.137Z,0
2016-11-16T03:29:43.056Z,0
2016-11-16T03:30:42.328Z,0
2016-11-16T03:31:42.773Z,0
2016-11-16T03:32:43.132Z,0
2016-11-16T03:33:42.123Z,0
2016-11-16T03:34:42.894Z,0
2016-11-16T03:35:43.046Z,0
2016-11-16T03:36:42.727Z,0
2016-11-16T03:37:43.864Z,0
2016-11-16T03:38:42.091Z,0
2016-11-16T03:39:42.709Z,0
2016-11-16T03:40:42.691Z,0
2016-11-16T03:41:43.032Z,0
2016-11-16T03:42:42.676Z,0
2016-11-16T03:43:42.783Z,0
2016-11-16T03:44:44.353Z,0
2016-11-16T03:45:42.898Z,0
2016-11-16T03:46:43.111Z,0
2016-11-16T03:47:42.923Z,0
2016-11-16T03:48:43.429Z,0
2016-11-16T03:49:43.407Z,0
2016-11-16T03:50:42.756Z,0
2016-11-16T03:51:43.285Z,0
2016-11-16T03:52:43.218Z,0
2016-11-16T03:53:43.206Z,0
2016-11-16T03:54:43.564Z,0
2016-11-16T03:55:43.745Z,0
2016-11-16T03:56:43.443Z,0
2016-11-16T03:57:42.868Z,0
2016-11-16T03:58:42.806Z,0
2016-11-16T03:59:42.625Z,0
2016-11-16T04:00:43.049Z,0
2016-11-16T04:01:43.806Z,0
2016-11-16T04:02:42.924Z,0
2016-11-16T04:03:42.807Z,0
2016-11-16T04:04:42.638Z,0
2016-11-16T04:05:42.920Z,0
2016-11-16T04:06:42.552Z,0
2016-11-16T04:07:44.009Z,0
2016-11-16T04:08:42.701Z,0
2016-11-16T04:09:43.492Z,0
2016-11-16T04:10:42.098Z,0
2016-11-16T04:11:43.108Z,0
2016-11-16T04:12:44.112Z,0
2016-11-16T04:13:43.239Z,0
2016-11-16T04:14:42.394Z,0
2016-11-16T04:15:42.857Z,0
2016-11-16T04:16:44.267Z,0
2016-11-16T04:17:43.602Z,0
2016-11-16T04:18:43.221Z,0
2016-11-16T04:19:44.037Z,0
2016-11-16T04:20:44.514Z,0
2016-11-16T04:21:43.386Z,0
2016-11-16T04:22:44.284Z,0
2016-11-16T04:23:42.985Z,0
2016-11-16T04:24:43.015Z,0
2016-11-16T04:25:43.314Z,0
2016-11-16T04:26:45.528Z,0
2016-11-16T04:27:44.184Z,0
2016-11-16T04:28:43.848Z,0
2016-11-16T04:29:43.385Z,0
2016-11-16T04:30:43.168Z,0
2016-11-16T04:31:44.456Z,0
2016-11-16T04:32:44.334Z,0
2016-11-16T04:33:43.549Z,0
2016-11-16T04:34:44.129Z,0
2016-11-16T04:35:44.143Z,0
2016-11-16T04:36:43.179Z,0
2016-11-16T04:37:44.408Z,0
2016-11-16T04:38:43.261Z,0
2016-11-16T04:39:43.957Z,0
2016-11-16T04:40:44.678Z,0
2016-11-16T04:41:44.125Z,0
2016-11-16T04:42:44.203Z,0
2016-11-16T04:43:44.542Z,0
2016-11-16T04:44:44.071Z,0
2016-11-16T04:45:44.204Z,0
2016-11-16T04:46:44.395Z,0
2016-11-16T04:47:44.151Z,0
2016-11-16T04:48:44.716Z,0
2016-11-16T04:49:43.966Z,0
2016-11-16T04:50:44.443Z,0
2016-11-16T04:51:45.075Z,0
2016-11-16T04:52:43.993Z,0
2016-11-16T04:53:44.051Z,0
2016-11-16T04:54:44.022Z,0
2016-11-16T04:55:43.996Z,0
2016-11-16T04:56:44.076Z,0
2016-11-16T04:57:44.601Z,0
2016-11-16T04:58:44.832Z,0
2016-11-16T04:59:44.827Z,0
2016-11-16T05:00:43.589Z,0
2016-11-16T05:01:42.798Z,0
2016-11-16T05:02:42.757Z,0
2016-11-16T05:03:45.911Z,0
2016-11-16T05:04:45.545Z,0
2016-11-16T05:05:46.863Z,0
2016-11-16T05:06:45.779Z,0
2016-11-16T05:07:45.918Z,0
2016-11-16T05:08:46.946Z,0
2016-11-16T05:09:44.592Z,0
2016-11-16T05:10:45.666Z,0
2016-11-16T05:11:46.256Z,0
2016-11-16T05:12:45.568Z,0
2016-11-16T05:13:45.307Z,0
2016-11-16T05:14:44.711Z,0
2016-11-16T05:15:45.891Z,0
2016-11-16T05:16:44.804Z,0
2016-11-16T05:17:46.527Z,0
2016-11-16T05:18:44.836Z,0
2016-11-16T05:19:44.812Z,0
2016-11-16T05:20:45.427Z,0
2016-11-16T05:21:44.835Z,0
2016-11-16T05:22:44.593Z,0
2016-11-16T05:23:44.947Z,0
2016-11-16T05:24:45.197Z,0
2016-11-16T05:25:44.832Z,0
2016-11-16T05:26:46.155Z,0
2016-11-16T05:27:45.654Z,0
2016-11-16T05:28:45.197Z,0
2016-11-16T05:29:45.646Z,0
2016-11-16T05:30:45.794Z,0
2016-11-16T05:31:45.564Z,0
2016-11-16T05:32:45.567Z,0
2016-11-16T05:33:44.953Z,0
2016-11-16T05:34:44.600Z,0
2016-11-16T05:35:44.592Z,0
2016-11-16T05:36:45.330Z,0
2016-11-16T05:37:45.214Z,0
2016-11-16T05:38:45.426Z,0
2016-11-16T05:39:44.564Z,0
2016-11-16T05:40:44.590Z,0
2016-11-16T05:41:45.210Z,0
2016-11-16T05:42:44.595Z,0
2016-11-16T05:43:45.924Z,0
2016-11-16T05:44:45.301Z,0
2016-11-16T05:45:46.272Z,0
2016-11-16T05:46:45.316Z,0
2016-11-16T05:47:44.714Z,0
2016-11-16T05:48:45.314Z,0
2016-11-16T05:49:45.212Z,0
2016-11-16T05:50:45.687Z,0
2016-11-16T05:51:45.088Z,0
2016-11-16T05:52:44.830Z,0
2016-11-16T05:53:44.494Z,0
2016-11-16T05:54:44.717Z,0
2016-11-16T05:55:45.787Z,0
2016-11-16T05:56:44.454Z,0
2016-11-16T05:57:44.973Z,0
2016-11-16T05:58:45.700Z,0
2016-11-16T05:59:44.939Z,0
2016-11-16T06:00:46.182Z,0
2016-11-16T06:01:45.066Z,0
2016-11-16T06:02:45.199Z,0
2016-11-16T06:03:45.218Z,0
2016-11-16T06:04:45.187Z,0
2016-11-16T06:05:45.295Z,0
2016-11-16T06:06:44.984Z,0
2016-11-16T06:07:45.315Z,0
2016-11-16T06:08:45.580Z,0
2016-11-16T06:09:44.844Z,0
2016-11-16T06:10:44.838Z,0
2016-11-16T06:11:45.059Z,0
2016-11-16T06:12:44.499Z,0
2016-11-16T06:13:45.338Z,0
2016-11-16T06:14:45.226Z,0
2016-11-16T06:15:45.589Z,0
2016-11-16T06:16:44.987Z,0
2016-11-16T06:17:44.745Z,0
2016-11-16T06:18:45.200Z,0
2016-11-16T06:19:44.848Z,0
2016-11-16T06:20:44.971Z,0
2016-11-16T06:21:45.087Z,0
2016-11-16T06:22:45.826Z,0
2016-11-16T06:23:46.912Z,0
2016-11-16T06:24:45.456Z,0
2016-11-16T06:25:47.153Z,0
2016-11-16T06:26:45.230Z,0
2016-11-16T06:27:46.802Z,0
2016-11-16T06:28:46.771Z,0
2016-11-16T06:29:44.152Z,0
2016-11-16T06:30:44.511Z,0
2016-11-16T06:31:44.994Z,0
2016-11-16T06:32:45.941Z,0
2016-11-16T06:33:44.565Z,0
2016-11-16T06:34:44.808Z,0
2016-11-16T06:35:44.377Z,0
2016-11-16T06:36:45.526Z,0
2016-11-16T06:37:44.578Z,0
2016-11-16T06:38:44.617Z,0
2016-11-16T06:39:44.919Z,0
2016-11-16T06:40:44.370Z,0
2016-11-16T06:41:44.517Z,5
2016-11-16T06:42:44.912Z,5
2016-11-16T06:43:45.177Z,5
2016-11-16T06:44:45.195Z,5
2016-11-16T06:45:45.042Z,5
2016-11-16T06:46:44.911Z,5
2016-11-16T06:47:45.102Z,5
2016-11-16T06:48:44.673Z,5
2016-11-16T06:49:44.491Z,5
2016-11-16T06:50:44.588Z,5
2016-11-16T06:51:45.806Z,10
2016-11-16T06:52:44.517Z,10
2016-11-16T06:53:44.589Z,10
2016-11-16T06:54:44.779Z,10
2016-11-16T06:55:44.848Z,10
2016-11-16T06:56:44.920Z,10
2016-11-16T06:57:45.572Z,10
2016-11-16T06:58:45.806Z,10
2016-11-16T06:59:44.944Z,15
2016-11-16T07:00:45.209Z,15
2016-11-16T07:01:45.073Z,15
2016-11-16T07:02:45.131Z,15
2016-11-16T07:03:45.636Z,15
2016-11-16T07:04:45.246Z,15
2016-11-16T07:05:44.962Z,15
2016-11-16T07:06:45.222Z,15
2016-11-16T07:07:45.662Z,15
2016-11-16T07:08:45.221Z,15
2016-11-16T07:09:45.218Z,15
2016-11-16T07:10:45.185Z,15
2016-11-16T07:11:44.752Z,15
2016-11-16T07:12:45.647Z,15
2016-11-16T07:13:45.712Z,15
2016-11-16T07:14:45.360Z,15
2016-11-16T07:15:45.464Z,15
2016-11-16T07:16:45.134Z,15
2016-11-16T07:17:45.730Z,20
2016-11-16T07:18:45.569Z,20
2016-11-16T07:19:45.665Z,20
2016-11-16T07:20:45.314Z,20
2016-11-16T07:21:45.100Z,20
2016-11-16T07:22:45.180Z,20
2016-11-16T07:23:45.732Z,20
2016-11-16T07:24:45.981Z,20
2016-11-16T07:25:46.156Z,20
2016-11-16T07:26:46.580Z,20
2016-11-16T07:27:46.004Z,20
2016-11-16T07:28:45.442Z,25
2016-11-16T07:29:44.924Z,25
2016-11-16T07:30:45.291Z,25
2016-11-16T07:31:45.965Z,30
2016-11-16T07:32:45.082Z,30
2016-11-16T07:33:45.678Z,35
2016-11-16T07:34:45.120Z,35
2016-11-16T07:35:45.295Z,45
2016-11-16T07:36:46.644Z,40
2016-11-16T07:37:45.760Z,45
2016-11-16T07:38:45.669Z,45
2016-11-16T07:39:45.917Z,40
2016-11-16T07:40:46.289Z,35
2016-11-16T07:41:45.299Z,30
2016-11-16T07:42:46.908Z,30
2016-11-16T07:43:45.628Z,30
2016-11-16T07:44:45.457Z,30
2016-11-16T07:45:45.935Z,30
2016-11-16T07:46:46.146Z,30
2016-11-16T07:47:47.849Z,30
2016-11-16T07:48:46.789Z,35
2016-11-16T07:49:46.736Z,35
2016-11-16T07:50:45.819Z,40
2016-11-16T07:51:45.903Z,45
2016-11-16T07:52:45.695Z,50
2016-11-16T07:53:46.507Z,50
2016-11-16T07:54:46.283Z,50
2016-11-16T07:55:45.642Z,55
2016-11-16T07:56:46.279Z,45
2016-11-16T07:57:45.352Z,45
2016-11-16T07:58:45.641Z,55
2016-11-16T07:59:46.406Z,65
2016-11-16T08:00:46.888Z,60
2016-11-16T08:01:45.928Z,60
2016-11-16T08:02:45.551Z,65
2016-11-16T08:03:45.582Z,60
2016-11-16T08:04:45.766Z,60
2016-11-16T08:05:45.955Z,70
2016-11-16T08:06:46.207Z,70
2016-11-16T08:07:45.736Z,65
2016-11-16T08:08:46.606Z,65
2016-11-16T08:09:46.183Z,65
2016-11-16T08:10:46.248Z,75
2016-11-16T08:11:46.125Z,75
2016-11-16T08:12:47.011Z,70
2016-11-16T08:13:46.397Z,70
2016-11-16T08:14:45.944Z,85
2016-11-16T08:15:46.543Z,95
2016-11-16T08:16:46.297Z,105
2016-11-16T08:17:46.782Z,120
2016-11-16T08:18:46.501Z,115
2016-11-16T08:19:46.631Z,125
2016-11-16T08:20:46.413Z,140
2016-11-16T08:21:45.978Z,125
2016-11-16T08:22:46.876Z,110
2016-11-16T08:23:46.620Z,105
2016-11-16T08:24:46.617Z,105
2016-11-16T08:25:46.390Z,115
2016-11-16T08:26:46.313Z,105
2016-11-16T08:27:46.272Z,120
2016-11-16T08:28:47.328Z,135
2016-11-16T08:29:46.731Z,145
2016-11-16T08:30:46.888Z,170
2016-11-16T08:31:46.692Z,170
2016-11-16T08:32:46.625Z,190
2016-11-16T08:33:46.785Z,215
2016-11-16T08:34:46.330Z,240
2016-11-16T08:35:46.512Z,235
2016-11-16T08:36:46.213Z,220
2016-11-16T08:37:46.602Z,240
2016-11-16T08:38:46.397Z,215
2016-11-16T08:39:46.538Z,210
2016-11-16T08:40:46.582Z,215
2016-11-16T08:41:46.452Z,195
2016-11-16T08:42:46.617Z,185
2016-11-16T08:43:46.779Z,205
2016-11-16T08:44:46.817Z,215
2016-11-16T08:45:47.201Z,190
2016-11-16T08:46:46.395Z,170
2016-11-16T08:47:46.561Z,180
2016-11-16T08:48:46.621Z,195
2016-11-16T08:49:46.629Z,180
2016-11-16T08:50:46.497Z,175
2016-11-16T08:51:46.637Z,160
2016-11-16T08:52:46.761Z,145
2016-11-16T08:53:46.743Z,115
2016-11-16T08:54:46.573Z,115
2016-11-16T08:55:46.519Z,110
2016-11-16T08:56:46.475Z,100
2016-11-16T08:57:46.439Z,105
2016-11-16T08:58:46.853Z,100
2016-11-16T08:59:46.630Z,110
2016-11-16T09:00:46.623Z,110
2016-11-16T09:01:46.666Z,130
2016-11-16T09:02:47.153Z,130
2016-11-16T09:03:46.567Z,115
2016-11-16T09:04:46.781Z,115
2016-11-16T09:05:47.586Z,120
2016-11-16T09:06:46.959Z,120
2016-11-16T09:07:47.176Z,105
2016-11-16T09:08:48.088Z,115
2016-11-16T09:09:47.381Z,110
2016-11-16T09:10:49.180Z,95
2016-11-16T09:11:49.124Z,95
2016-11-16T09:12:49.107Z,90
2016-11-16T09:13:47.937Z,80
2016-11-16T09:14:48.292Z,80
2016-11-16T09:15:48.145Z,70
2016-11-16T09:16:48.355Z,75
2016-11-16T09:17:47.646Z,75
2016-11-16T09:18:47.094Z,65
2016-11-16T09:19:48.439Z,70
2016-11-16T09:20:49.657Z,70
2016-11-16T09:21:47.360Z,65
2016-11-16T09:22:47.832Z,65
2016-11-16T09:23:48.524Z,65
2016-11-16T09:24:47.754Z,55
2016-11-16T09:25:47.763Z,60
2016-11-16T09:26:47.445Z,55
2016-11-16T09:27:47.568Z,60
2016-11-16T09:28:48.176Z,60
2016-11-16T09:29:48.357Z,60
2016-11-16T09:30:47.849Z,60
2016-11-16T09:31:48.732Z,60
2016-11-16T09:32:48.328Z,60
2016-11-16T09:33:48.361Z,70
2016-11-16T09:34:48.200Z,80
2016-11-16T09:35:49.732Z,90
2016-11-16T09:36:48.066Z,90
2016-11-16T09:37:48.087Z,90
2016-11-16T09:38:47.762Z,90
2016-11-16T09:39:47.826Z,100
2016-11-16T09:40:49.206Z,110
2016-11-16T09:41:48.613Z,110
2016-11-16T09:42:48.825Z,115
2016-11-16T09:43:49.234Z,140
2016-11-16T09:44:48.801Z,155
2016-11-16T09:45:47.833Z,145
2016-11-16T09:46:49.158Z,130
2016-11-16T09:47:49.077Z,110
2016-11-16T09:48:48.257Z,110
2016-11-16T09:49:48.133Z,125
2016-11-16T09:50:48.190Z,135
2016-11-16T09:51:49.691Z,130
2016-11-16T09:52:48.275Z,130
2016-11-16T09:53:48.103Z,120
2016-11-16T09:54:48.835Z,120
2016-11-16T09:55:49.108Z,110
2016-11-16T09:56:49.079Z,105
2016-11-16T09:57:48.940Z,105
2016-11-16T09:58:48.807Z,115
2016-11-16T09:59:48.058Z,140
2016-11-16T10:00:49.014Z,140
2016-11-16T10:01:48.168Z,130
2016-11-16T10:02:48.381Z,115
2016-11-16T10:03:47.902Z,110
2016-11-16T10:04:48.940Z,140
2016-11-16T10:05:49.382Z,140
2016-11-16T10:06:48.068Z,140
2016-11-16T10:07:49.321Z,145
2016-11-16T10:08:49.447Z,160
2016-11-16T10:09:48.851Z,190
2016-11-16T10:10:48.440Z,195
2016-11-16T10:11:49.304Z,190
2016-11-16T10:12:49.491Z,180
2016-11-16T10:13:50.019Z,165
2016-11-16T10:14:48.646Z,170
2016-11-16T10:15:48.412Z,175
2016-11-16T10:16:49.257Z,210
2016-11-16T10:17:49.884Z,210
2016-11-16T10:18:48.256Z,195
2016-11-16T10:19:49.632Z,185
2016-11-16T10:20:49.616Z,180
2016-11-16T10:21:48.119Z,165
2016-11-16T10:22:49.339Z,175
2016-11-16T10:23:49.423Z,180
2016-11-16T10:24:48.415Z,165
2016-11-16T10:25:49.755Z,185
2016-11-16T10:26:50.197Z,185
2016-11-16T10:27:48.766Z,180
2016-11-16T10:28:49.188Z,170
2016-11-16T10:29:48.675Z,145
2016-11-16T10:30:49.421Z,165
2016-11-16T10:31:49.405Z,175
2016-11-16T10:32:48.868Z,135
2016-11-16T10:33:48.735Z,170
2016-11-16T10:34:48.677Z,160
2016-11-16T10:35:48.631Z,120
2016-11-16T10:36:48.465Z,135
2016-11-16T10:37:49.432Z,140
2016-11-16T10:38:49.331Z,130
2016-11-16T10:39:50.421Z,130
2016-11-16T10:40:49.707Z,145
2016-11-16T10:41:49.768Z,155
2016-11-16T10:42:49.648Z,145
2016-11-16T10:43:48.650Z,135
2016-11-16T10:44:49.518Z,115
2016-11-16T10:45:49.436Z,110
2016-11-16T10:46:50.120Z,95
2016-11-16T10:47:49.552Z,105
2016-11-16T10:48:49.699Z,130
2016-11-16T10:49:50.109Z,155
2016-11-16T10:50:49.021Z,150
2016-11-16T10:51:49.766Z,130
2016-11-16T10:52:49.952Z,130
2016-11-16T10:53:49.642Z,140
2016-11-16T10:54:49.854Z,135
2016-11-16T10:55:50.232Z,145
2016-11-16T10:56:49.329Z,145
2016-11-16T10:57:49.611Z,140
2016-11-16T10:58:49.534Z,145
2016-11-16T10:59:49.963Z,140
2016-11-16T11:00:50.069Z,130
2016-11-16T11:01:50.825Z,140
2016-11-16T11:02:50.155Z,165
2016-11-16T11:03:49.458Z,195
2016-11-16T11:04:50.183Z,235
2016-11-16T11:05:50.148Z,280
2016-11-16T11:06:49.892Z,280
2016-11-16T11:07:50.077Z,275
2016-11-16T11:08:50.696Z,260
2016-11-16T11:09:49.864Z,270
2016-11-16T11:10:50.736Z,315
2016-11-16T11:11:49.800Z,345
2016-11-16T11:12:48.750Z,335
2016-11-16T11:13:49.889Z,280
2016-11-16T11:14:49.863Z,280
2016-11-16T11:15:49.624Z,275
2016-11-16T11:16:49.545Z,280
2016-11-16T11:17:49.811Z,295
2016-11-16T11:18:49.597Z,335
2016-11-16T11:19:49.454Z,335
2016-11-16T11:20:50.166Z,270
2016-11-16T11:21:49.962Z,180
2016-11-16T11:22:50.195Z,190
2016-11-16T11:23:50.757Z,185
2016-11-16T11:24:49.728Z,135
2016-11-16T11:25:50.168Z,130
2016-11-16T11:26:49.919Z,150
2016-11-16T11:27:50.462Z,160
2016-11-16T11:28:50.617Z,175
2016-11-16T11:29:49.687Z,160
2016-11-16T11:30:50.772Z,130
2016-11-16T11:31:50.932Z,115
2016-11-16T11:32:50.269Z,110
2016-11-16T11:33:50.276Z,115
2016-11-16T11:34:50.481Z,130
2016-11-16T11:35:50.598Z,150
2016-11-16T11:36:51.115Z,180
2016-11-16T11:37:50.832Z,195
2016-11-16T11:38:50.184Z,195
2016-11-16T11:39:51.397Z,180
2016-11-16T11:40:49.714Z,175
2016-11-16T11:41:50.170Z,205
2016-11-16T11:42:49.630Z,180
2016-11-16T11:43:49.873Z,180
2016-11-16T11:44:50.567Z,195
2016-11-16T11:45:50.257Z,200
2016-11-16T11:46:49.939Z,205
2016-11-16T11:47:50.242Z,245
2016-11-16T11:48:51.216Z,325
2016-11-16T11:49:49.936Z,385
2016-11-16T11:50:49.598Z,395
2016-11-16T11:51:50.090Z,410
2016-11-16T11:52:50.371Z,420
2016-11-16T11:53:50.762Z,405
2016-11-16T11:54:50.460Z,385
2016-11-16T11:55:51.912Z,395
2016-11-16T11:56:50.173Z,405
2016-11-16T11:57:50.212Z,395
2016-11-16T11:58:50.512Z,390
2016-11-16T11:59:50.709Z,325
2016-11-16T12:00:50.330Z,265
2016-11-16T12:01:50.277Z,235
2016-11-16T12:02:49.569Z,315
2016-11-16T12:03:50.596Z,450
2016-11-16T12:04:50.895Z,460
2016-11-16T12:05:49.955Z,435
2016-11-16T12:06:50.420Z,355
2016-11-16T12:07:50.337Z,375
2016-11-16T12:08:50.085Z,375
2016-11-16T12:09:51.089Z,360
2016-11-16T12:10:50.735Z,340
2016-11-16T12:11:50.881Z,285
2016-11-16T12:12:50.069Z,280
2016-11-16T12:13:50.651Z,300
2016-11-16T12:14:51.556Z,285
2016-11-16T12:15:50.379Z,260
2016-11-16T12:16:51.052Z,240
2016-11-16T12:17:50.932Z,250
2016-11-16T12:18:51.199Z,250
2016-11-16T12:19:50.995Z,240
2016-11-16T12:20:50.250Z,255
2016-11-16T12:21:50.264Z,225
2016-11-16T12:22:51.303Z,240
2016-11-16T12:23:52.144Z,240
2016-11-16T12:24:50.974Z,205
2016-11-16T12:25:51.736Z,195
2016-11-16T12:26:51.432Z,235
2016-11-16T12:27:51.377Z,250
2016-11-16T12:28:51.172Z,255
2016-11-16T12:29:50.799Z,220
2016-11-16T12:30:50.651Z,210
2016-11-16T12:31:51.348Z,205
2016-11-16T12:32:50.927Z,230
2016-11-16T12:33:50.545Z,240
2016-11-16T12:34:51.838Z,245
2016-11-16T12:35:50.599Z,255
2016-11-16T12:36:51.607Z,245
2016-11-16T12:37:51.162Z,245
2016-11-16T12:38:51.975Z,270
2016-11-16T12:39:50.968Z,305
2016-11-16T12:40:50.949Z,320
2016-11-16T12:41:50.663Z,295
2016-11-16T12:42:51.001Z,300
2016-11-16T12:43:52.143Z,305
2016-11-16T12:44:51.878Z,315
2016-11-16T12:45:51.336Z,335
2016-11-16T12:46:51.230Z,340
2016-11-16T12:47:50.996Z,340
2016-11-16T12:48:51.248Z,295
2016-11-16T12:49:50.925Z,285
2016-11-16T12:50:50.948Z,285
2016-11-16T12:51:51.828Z,265
2016-11-16T12:52:51.322Z,300
2016-11-16T12:53:51.156Z,290
2016-11-16T12:54:52.045Z,315
2016-11-16T12:55:51.088Z,345
2016-11-16T12:56:50.984Z,365
2016-11-16T12:57:50.959Z,375
2016-11-16T12:58:52.534Z,355
2016-11-16T12:59:52.803Z,350
2016-11-16T13:00:52.478Z,295
2016-11-16T13:01:52.030Z,255
2016-11-16T13:02:51.472Z,255
2016-11-16T13:03:51.399Z,270
2016-11-16T13:04:51.525Z,240
2016-11-16T13:05:51.927Z,210
2016-11-16T13:06:52.266Z,170
2016-11-16T13:07:52.406Z,165
2016-11-16T13:08:51.917Z,190
2016-11-16T13:09:52.576Z,210
2016-11-16T13:10:51.124Z,220
2016-11-16T13:11:52.843Z,240
2016-11-16T13:12:51.315Z,255
2016-11-16T13:13:51.989Z,275
2016-11-16T13:14:51.986Z,315
2016-11-16T13:15:52.465Z,340
2016-11-16T13:16:51.969Z,340
2016-11-16T13:17:52.410Z,350
2016-11-16T13:18:51.271Z,320
2016-11-16T13:19:52.547Z,350
2016-11-16T13:20:51.934Z,345
2016-11-16T13:21:51.314Z,335
2016-11-16T13:22:52.520Z,340
2016-11-16T13:23:52.644Z,305
2016-11-16T13:24:52.465Z,280
2016-11-16T13:25:51.812Z,260
2016-11-16T13:26:53.275Z,250
2016-11-16T13:27:53.219Z,255
2016-11-16T13:28:53.100Z,240
2016-11-16T13:29:52.537Z,220
2016-11-16T13:30:51.747Z,200
2016-11-16T13:31:52.566Z,205
2016-11-16T13:32:53.001Z,230
2016-11-16T13:33:52.913Z,240
2016-11-16T13:34:51.891Z,235
2016-11-16T13:35:52.991Z,260
2016-11-16T13:36:51.698Z,295
2016-11-16T13:37:52.432Z,270
2016-11-16T13:38:52.127Z,255
2016-11-16T13:39:53.089Z,250
2016-11-16T13:40:52.543Z,255
2016-11-16T13:41:53.269Z,300
2016-11-16T13:42:52.442Z,285
2016-11-16T13:43:52.576Z,280
2016-11-16T13:44:53.033Z,310
2016-11-16T13:45:52.214Z,315
2016-11-16T13:46:52.074Z,340
2016-11-16T13:47:52.650Z,335
2016-11-16T13:48:53.182Z,310
2016-11-16T13:49:53.160Z,315
2016-11-16T13:50:53.493Z,335
2016-11-16T13:51:52.626Z,355
2016-11-16T13:52:52.683Z,350
2016-11-16T13:53:52.552Z,310
2016-11-16T13:54:52.450Z,270
2016-11-16T13:55:52.549Z,255
2016-11-16T13:56:53.330Z,275
2016-11-16T13:57:53.313Z,295
2016-11-16T13:58:52.441Z,275
2016-11-16T13:59:53.289Z,260
2016-11-16T14:00:51.919Z,255
2016-11-16T14:01:53.008Z,285
2016-11-16T14:02:53.254Z,320
2016-11-16T14:03:53.711Z,300
2016-11-16T14:04:52.172Z,310
2016-11-16T14:05:53.073Z,295
2016-11-16T14:06:53.123Z,295
2016-11-16T14:07:52.881Z,295
2016-11-16T14:08:52.298Z,280
2016-11-16T14:09:52.315Z,260
2016-11-16T14:10:53.155Z,265
2016-11-16T14:11:52.363Z,245
2016-11-16T14:12:52.408Z,245
2016-11-16T14:13:52.923Z,250
2016-11-16T14:14:52.651Z,250
2016-11-16T14:15:52.612Z,240
2016-11-16T14:16:52.543Z,235
2016-11-16T14:17:52.399Z,225
2016-11-16T14:18:54.079Z,220